createdAt,value
2019-04-23T00:03:17.001Z,37.83
2019-04-23T00:08:29.200Z,38.20
2019-04-23T00:13:29.345Z,38.03
2019-04-23T00:18:37.379Z,38.30
2019-04-23T00:23:44.629Z,38.77
2019-04-23T00:28:42.171Z,38.19
2019-04-23T00:33:44.457Z,38.20
2019-04-23T00:38:50.254Z,38.43
2019-04-23T00:49:06.756Z,38.56
2019-04-23T00:54:13.605Z,38.79
2019-04-23T00:59:19.436Z,38.78
2019-04-23T01:04:20.443Z,38.65
2019-04-23T01:09:29.325Z,38.65
2019-04-23T01:14:33.316Z,38.79
2019-04-23T01:19:44.426Z,38.79
2019-04-23T01:24:40.368Z,39.18
2019-04-23T01:30:09.633Z,39.45
2019-04-23T01:35:33.361Z,39.41
2019-04-23T01:40:19.085Z,39.36
2019-04-23T01:45:31.605Z,39.23
2019-04-23T01:50:52.206Z,39.44
2019-04-23T02:00:41.236Z,39.26
2019-04-23T02:05:48.129Z,39.36
2019-04-23T02:10:58.805Z,39.60
2019-04-23T02:16:15.237Z,39.58
2019-04-23T02:21:07.046Z,39.71
2019-04-23T02:26:17.057Z,39.96
2019-04-23T02:36:32.168Z,40.29
2019-04-23T02:41:34.705Z,39.78
2019-04-23T02:46:40.915Z,39.99
2019-04-23T02:51:51.014Z,40.33
2019-04-23T02:56:51.000Z,40.33
2019-04-23T03:02:11.994Z,40.82
2019-04-23T03:07:14.132Z,40.90
2019-04-23T03:12:22.506Z,41.27
2019-04-23T03:17:19.406Z,41.36
2019-04-23T03:22:42.209Z,41.56
2019-04-23T03:27:34.221Z,41.33
2019-04-23T03:33:38.087Z,41.43
2019-04-23T03:43:04.378Z,40.80
2019-04-23T03:48:05.691Z,41.32
2019-04-23T03:53:03.010Z,40.98
2019-04-23T03:58:21.158Z,40.71
2019-04-23T04:08:36.108Z,40.66
2019-04-23T04:13:31.064Z,40.66
2019-04-23T04:23:43.531Z,40.28
2019-04-23T04:38:57.681Z,39.90
2019-04-23T04:44:22.273Z,39.52
2019-04-23T04:54:14.286Z,39.57
2019-04-23T04:59:13.322Z,39.79
2019-04-23T05:04:26.685Z,39.75
2019-04-23T05:09:43.926Z,39.11
2019-04-23T05:14:43.959Z,39.45
2019-04-23T05:19:45.675Z,39.02
2019-04-23T05:24:43.243Z,39.35
2019-04-23T05:29:54.310Z,39.40
2019-04-23T05:34:56.157Z,39.40
2019-04-23T05:40:08.738Z,39.01
2019-04-23T05:45:06.026Z,39.01
2019-04-23T05:50:21.574Z,38.92
2019-04-23T05:55:13.293Z,38.56
2019-04-23T06:00:23.668Z,39.00
2019-04-23T06:05:26.276Z,39.14
2019-04-23T06:10:32.659Z,39.14
2019-04-23T06:15:41.791Z,38.33
2019-04-23T06:20:51.225Z,38.33
2019-04-23T06:31:01.996Z,38.87
2019-04-23T06:36:09.002Z,38.80
2019-04-23T06:41:11.728Z,38.60
2019-04-23T06:46:13.525Z,38.70
2019-04-23T06:51:19.660Z,38.31
2019-04-23T06:56:27.811Z,38.29
2019-04-23T07:01:27.445Z,38.29
2019-04-23T07:11:47.491Z,38.08
2019-04-23T07:16:59.250Z,38.08
2019-04-23T07:21:52.570Z,37.96
2019-04-23T07:26:45.013Z,37.81
2019-04-23T07:32:03.612Z,37.81
2019-04-23T07:37:07.415Z,37.99
2019-04-23T07:42:41.878Z,37.53
2019-04-23T07:48:08.073Z,37.99
2019-04-23T07:53:13.144Z,38.04
2019-04-23T08:03:27.432Z,38.02
2019-04-23T08:08:16.785Z,37.80
2019-04-23T08:13:38.014Z,37.97
2019-04-23T08:18:36.537Z,37.78
2019-04-23T08:23:58.683Z,37.78
2019-04-23T08:29:04.047Z,38.16
2019-04-23T08:34:18.630Z,37.80
2019-04-23T08:39:12.076Z,37.28
2019-04-23T08:45:00.362Z,37.28
2019-04-23T08:54:58.075Z,37.42
2019-04-23T08:59:48.627Z,37.70
2019-04-23T09:05:00.511Z,37.63
2019-04-23T09:10:04.687Z,37.76
2019-04-23T09:15:09.673Z,37.59
2019-04-23T09:20:21.915Z,37.65
2019-04-23T09:30:28.595Z,37.61
2019-04-23T09:35:44.571Z,38.16
2019-04-23T09:41:22.160Z,37.48
2019-04-23T09:46:41.691Z,37.48
2019-04-23T09:51:45.203Z,37.92
2019-04-23T09:56:50.826Z,37.96
2019-04-23T10:01:45.162Z,37.80
2019-04-23T10:06:38.985Z,37.80
2019-04-23T10:11:40.819Z,37.81
2019-04-23T10:16:45.169Z,37.81
2019-04-23T10:21:49.322Z,38.44
2019-04-23T10:26:53.157Z,37.92
2019-04-23T10:31:57.688Z,37.92
2019-04-23T10:37:01.992Z,37.75
2019-04-23T10:42:07.957Z,37.75
2019-04-23T10:48:02.647Z,35.12
2019-04-23T10:53:09.861Z,35.40
2019-04-23T10:58:08.298Z,35.92
2019-04-23T11:03:31.564Z,36.52
2019-04-23T11:08:17.601Z,36.51
2019-04-23T11:13:31.464Z,36.51
2019-04-23T11:18:48.821Z,35.43
2019-04-23T11:23:46.659Z,35.75
2019-04-23T11:28:44.951Z,35.66
2019-04-23T11:34:28.614Z,36.14
2019-04-23T11:38:58.691Z,35.61
2019-04-23T11:44:04.031Z,35.61
2019-04-23T11:51:10.423Z,35.50
2019-04-23T11:54:17.842Z,35.50
2019-04-23T11:59:34.397Z,34.50
2019-04-23T12:10:17.413Z,34.90
2019-04-23T12:15:18.104Z,35.26
2019-04-23T12:20:21.362Z,35.26
2019-04-23T12:25:25.362Z,35.12
2019-04-23T12:30:35.922Z,35.55
2019-04-23T12:35:49.987Z,35.73
2019-04-23T12:40:45.790Z,35.69
2019-04-23T12:56:11.615Z,36.08
2019-04-23T13:01:00.002Z,36.27
2019-04-23T13:06:00.713Z,36.27
2019-04-23T13:11:13.974Z,35.60
2019-04-23T13:16:25.430Z,35.67
2019-04-23T13:21:45.266Z,35.67
2019-04-23T13:26:27.315Z,36.87
2019-04-23T13:31:36.265Z,36.30
2019-04-23T13:36:45.066Z,37.23
2019-04-23T13:41:46.149Z,37.23
2019-04-23T13:47:00.861Z,37.06
2019-04-23T13:52:15.253Z,37.32
2019-04-23T13:57:37.080Z,37.32
2019-04-23T14:02:17.658Z,37.60
2019-04-23T14:07:23.365Z,37.75
2019-04-23T14:12:30.257Z,37.50
2019-04-23T14:17:36.399Z,37.60
2019-04-23T14:28:05.824Z,37.16
2019-04-23T14:32:45.530Z,37.47
2019-04-23T14:38:09.830Z,38.03
2019-04-23T14:53:16.042Z,37.56
2019-04-23T15:03:30.751Z,37.79
2019-04-23T15:08:34.272Z,37.50
2019-04-23T15:13:27.545Z,37.86
2019-04-23T15:19:07.952Z,37.86
2019-04-23T15:28:43.626Z,37.66
2019-04-23T15:39:26.805Z,37.64
2019-04-23T15:54:37.155Z,37.54
2019-04-23T16:04:16.824Z,37.66
2019-04-23T16:09:46.886Z,38.50
2019-04-23T16:15:11.713Z,38.50
2019-04-23T16:20:39.183Z,38.16
2019-04-23T16:25:36.315Z,37.69
2019-04-23T16:30:53.105Z,37.69
2019-04-23T16:36:00.021Z,37.39
2019-04-23T16:40:57.129Z,37.39
2019-04-23T16:46:16.337Z,37.17
2019-04-23T17:01:22.851Z,37.03
2019-04-23T17:06:29.343Z,36.94
2019-04-23T17:11:34.362Z,36.94
2019-04-23T17:16:38.100Z,36.97
2019-04-23T17:21:44.408Z,36.97
2019-04-23T17:26:57.218Z,36.61
2019-04-23T17:32:05.801Z,36.89
2019-04-23T17:37:22.489Z,38.03
2019-04-23T17:47:45.566Z,38.17
2019-04-23T17:52:51.170Z,38.15
2019-04-23T17:57:55.817Z,38.12
2019-04-23T18:03:01.261Z,38.22
2019-04-23T18:08:00.311Z,38.22
2019-04-23T18:13:05.230Z,38.01
2019-04-23T18:18:19.756Z,38.30
2019-04-23T18:23:32.047Z,38.30
2019-04-23T18:28:20.685Z,38.12
2019-04-23T18:38:44.415Z,38.12
2019-04-23T18:43:51.846Z,38.12
2019-04-23T18:48:50.097Z,39.16
2019-04-23T18:53:52.980Z,39.15
2019-04-23T19:04:41.571Z,38.91
2019-04-23T19:09:39.163Z,38.96
2019-04-23T19:19:49.946Z,38.83
2019-04-23T19:25:01.723Z,38.50
2019-04-23T19:29:58.223Z,38.89
2019-04-23T19:35:04.314Z,38.54
2019-04-23T19:40:12.058Z,39.21
2019-04-23T19:45:16.714Z,38.61
2019-04-23T19:50:24.010Z,38.61
2019-04-23T19:55:21.106Z,38.69
2019-04-23T20:00:45.236Z,38.50
2019-04-23T20:05:41.920Z,38.50
2019-04-23T20:10:50.151Z,38.61
2019-04-23T20:16:12.308Z,38.61
2019-04-23T20:20:55.084Z,38.98
2019-04-23T20:26:13.572Z,38.93
2019-04-23T20:32:25.692Z,38.90
2019-04-23T20:36:29.934Z,39.03
2019-04-23T20:42:02.426Z,39.12
2019-04-23T20:47:01.686Z,39.65
2019-04-23T20:52:04.789Z,39.59
2019-04-23T21:02:52.136Z,39.33
2019-04-23T21:12:57.926Z,39.30
2019-04-23T21:28:14.240Z,39.76
2019-04-23T21:38:27.717Z,39.91
2019-04-23T21:44:05.109Z,39.57
2019-04-23T21:53:53.176Z,39.84
2019-04-23T22:04:39.872Z,39.94
2019-04-23T22:09:12.460Z,39.94
2019-04-23T22:24:21.233Z,40.00
2019-04-23T22:29:33.077Z,39.84
2019-04-23T22:34:41.870Z,39.91
2019-04-23T22:39:47.257Z,39.91
2019-04-23T22:44:59.980Z,40.15
2019-04-23T22:50:02.665Z,40.31
2019-04-23T22:55:18.129Z,40.54
2019-04-23T23:00:25.508Z,40.45
2019-04-23T23:05:29.376Z,40.03
2019-04-23T23:10:20.025Z,40.03
2019-04-23T23:25:42.136Z,40.62
2019-04-23T23:35:54.174Z,40.78
2019-04-23T23:41:03.906Z,40.71
2019-04-23T23:46:17.340Z,40.73
2019-04-23T23:51:17.758Z,40.78
2019-04-23T23:56:19.397Z,40.79
